Time;durP1;ratioP1;P1;durP2;ratioP2;P2;SDS_P1;SDS_P2;PMS_P1;PMS_P2;Temp;Humidity;BMP_temperature;BMP_pressure;BME280_temperature;BME280_humidity;BME280_pressure;Samples;Min_cycle;Max_cycle;Signal;HPM_P1;HPM_P2
2022/05/09 00:00:42;;;;;;;8.00;3.00;;;9.30;99.90;;;;;;5209646;28;20182;-49
2022/05/09 00:03:13;;;;;;;6.63;2.60;;;9.30;99.90;;;;;;5226103;28;20755;-50
2022/05/09 00:05:43;;;;;;;15.50;2.90;;;9.20;99.90;;;;;;5242589;28;20237;-50
2022/05/09 00:08:14;;;;;;;7.13;2.83;;;9.20;99.90;;;;;;5214315;28;20202;-49
2022/05/09 00:10:44;;;;;;;8.33;3.40;;;9.10;99.90;;;;;;5221445;28;20552;-50
2022/05/09 00:13:15;;;;;;;10.40;3.07;;;9.20;99.90;;;;;;5226765;28;20206;-49
2022/05/09 00:15:45;;;;;;;5.60;2.73;;;9.10;99.90;;;;;;5229793;28;20186;-49
2022/05/09 00:18:17;;;;;;;3.10;2.70;;;9.00;99.90;;;;;;5227652;28;20187;-49
2022/05/09 00:20:47;;;;;;;22.33;2.90;;;9.00;99.90;;;;;;5227266;28;20190;-49
2022/05/09 00:23:18;;;;;;;11.97;3.23;;;9.00;99.90;;;;;;5229868;28;20474;-49
2022/05/09 00:25:48;;;;;;;11.97;2.93;;;8.90;99.90;;;;;;5228638;28;20191;-49
2022/05/09 00:28:19;;;;;;;8.80;3.00;;;8.90;99.90;;;;;;5220379;28;20206;-49
2022/05/09 00:30:49;;;;;;;15.20;2.97;;;8.90;99.90;;;;;;5226015;28;20210;-49
2022/05/09 00:33:20;;;;;;;7.67;3.40;;;8.80;99.90;;;;;;5227610;28;20207;-49
2022/05/09 00:35:52;;;;;;;12.40;3.80;;;8.80;99.90;;;;;;5227733;28;20189;-49
2022/05/09 00:38:22;;;;;;;8.03;3.67;;;8.80;99.90;;;;;;5226859;28;20171;-50
2022/05/09 00:43:42;;;;;;;12.67;3.87;;;8.70;99.90;;;;;;5230830;28;20214;-50
2022/05/09 00:46:13;;;;;;;13.30;4.27;;;8.60;99.90;;;;;;5228809;28;20429;-50
2022/05/09 00:48:43;;;;;;;10.30;3.87;;;8.60;99.90;;;;;;5229027;28;20186;-50
2022/05/09 00:51:19;;;;;;;13.77;3.90;;;8.60;99.90;;;;;;5230736;28;20209;-49
2022/05/09 00:53:51;;;;;;;13.30;4.33;;;8.50;99.90;;;;;;5228549;28;20629;-50
2022/05/09 00:56:32;;;;;;;12.13;3.90;;;8.50;99.90;;;;;;5228743;28;20488;-50
2022/05/09 00:59:08;;;;;;;13.00;4.80;;;8.50;99.90;;;;;;5226709;28;20434;-49
2022/05/09 01:01:40;;;;;;;8.43;4.00;;;8.40;99.90;;;;;;5230114;28;20498;-49
2022/05/09 01:04:15;;;;;;;11.77;3.87;;;8.40;99.90;;;;;;5229759;28;20793;-49
2022/05/09 01:06:45;;;;;;;8.13;3.90;;;8.30;99.90;;;;;;5238917;28;20429;-50
2022/05/09 01:09:16;;;;;;;12.90;4.00;;;8.30;99.90;;;;;;5245590;28;20421;-49
2022/05/09 01:11:48;;;;;;;11.37;4.57;;;8.30;99.90;;;;;;5229751;28;20216;-50
2022/05/09 01:14:24;;;;;;;13.30;4.33;;;8.20;99.90;;;;;;5232666;28;20189;-49
2022/05/09 01:16:56;;;;;;;9.50;3.50;;;8.20;99.90;;;;;;5224301;28;20480;-49
2022/05/09 01:19:31;;;;;;;10.80;3.90;;;8.20;99.90;;;;;;5226103;28;20426;-49
2022/05/09 01:22:03;;;;;;;17.80;5.03;;;8.10;99.90;;;;;;5218471;28;20454;-50
2022/05/09 01:24:34;;;;;;;16.50;4.90;;;8.20;99.90;;;;;;5229637;28;20951;-49
2022/05/09 01:27:04;;;;;;;32.67;5.47;;;8.10;99.90;;;;;;5229526;28;20433;-49
2022/05/09 01:29:57;;;;;;;12.13;4.37;;;8.10;99.90;;;;;;5218863;28;20183;-50
2022/05/09 01:32:32;;;;;;;7.77;3.37;;;8.10;99.90;;;;;;5228694;28;20194;-50
2022/05/09 01:35:10;;;;;;;8.03;3.60;;;8.10;99.90;;;;;;5217752;28;20481;-49
2022/05/09 01:37:42;;;;;;;16.53;5.30;;;8.10;99.90;;;;;;5229380;28;20947;-50
2022/05/09 01:40:13;;;;;;;13.53;3.90;;;8.00;99.90;;;;;;5229448;28;20455;-49
2022/05/09 01:42:44;;;;;;;20.90;5.73;;;8.00;99.90;;;;;;5227804;28;20520;-49
2022/05/09 01:45:15;;;;;;;13.20;4.80;;;8.00;99.90;;;;;;5229232;28;20960;-49
2022/05/09 01:50:34;;;;;;;17.13;4.20;;;7.90;99.90;;;;;;5219057;28;20215;-49
2022/05/09 01:53:05;;;;;;;18.60;4.70;;;7.90;99.90;;;;;;5231715;28;20464;-48
2022/05/09 01:55:35;;;;;;;15.63;5.80;;;7.90;99.90;;;;;;5229812;28;20194;-50
2022/05/09 01:58:06;;;;;;;14.57;4.63;;;7.80;99.90;;;;;;5245283;28;20252;-49
2022/05/09 02:00:36;;;;;;;15.20;5.33;;;7.80;99.90;;;;;;5230652;28;20237;-50
2022/05/09 02:03:07;;;;;;;20.67;5.10;;;7.80;99.90;;;;;;5228449;28;20256;-49
2022/05/09 02:05:38;;;;;;;9.73;3.87;;;7.80;99.90;;;;;;5218176;28;20314;-50
2022/05/09 02:08:08;;;;;;;15.37;4.50;;;7.80;99.90;;;;;;5224320;28;20233;-50
2022/05/09 02:10:41;;;;;;;4.73;4.00;;;7.80;99.90;;;;;;5215141;28;20562;-50
2022/05/09 02:13:12;;;;;;;15.27;4.73;;;7.70;99.90;;;;;;5229253;28;20198;-50
2022/05/09 02:15:43;;;;;;;15.20;5.00;;;7.70;99.90;;;;;;5229193;28;20432;-50
2022/05/09 02:18:13;;;;;;;13.37;4.87;;;7.70;99.90;;;;;;5224207;28;20184;-49
2022/05/09 02:20:46;;;;;;;19.73;4.60;;;7.60;99.90;;;;;;5242156;28;20615;-50
2022/05/09 02:23:17;;;;;;;18.00;4.77;;;7.60;99.90;;;;;;5223678;28;20213;-50
2022/05/09 02:25:47;;;;;;;19.37;4.30;;;7.60;99.90;;;;;;5226057;28;20455;-50
2022/05/09 02:28:18;;;;;;;13.30;4.60;;;7.60;99.90;;;;;;5227325;28;20179;-50
2022/05/09 02:30:49;;;;;;;22.73;4.67;;;7.60;99.90;;;;;;5229311;28;20573;-49
2022/05/09 02:33:19;;;;;;;17.23;4.47;;;7.60;99.90;;;;;;5220032;28;20203;-49
2022/05/09 02:35:50;;;;;;;21.73;4.00;;;7.50;99.90;;;;;;5218309;28;20797;-50
2022/05/09 02:38:24;;;;;;;14.07;4.10;;;7.50;99.90;;;;;;5218682;28;20777;-49
2022/05/09 02:40:55;;;;;;;12.37;5.40;;;7.40;99.90;;;;;;5229218;28;20186;-49
2022/05/09 02:43:26;;;;;;;13.63;6.13;;;7.40;99.90;;;;;;5226656;28;20460;-49
2022/05/09 02:46:03;;;;;;;16.10;4.30;;;7.40;99.90;;;;;;5228572;28;20414;-49
2022/05/09 02:48:35;;;;;;;18.57;4.80;;;7.30;99.90;;;;;;5238054;28;20278;-49
2022/05/09 02:51:08;;;;;;;18.60;5.07;;;7.30;99.90;;;;;;5227920;28;20501;-49
2022/05/09 02:53:38;;;;;;;10.27;4.33;;;7.30;99.90;;;;;;5227680;28;20455;-49
2022/05/09 02:56:10;;;;;;;17.93;5.27;;;7.30;99.90;;;;;;5226554;28;20433;-49
2022/05/09 02:58:40;;;;;;;15.37;5.60;;;7.30;99.90;;;;;;5229114;28;20580;-49
2022/05/09 03:01:11;;;;;;;21.17;5.70;;;7.30;99.90;;;;;;5228921;28;20503;-50
2022/05/09 03:06:30;;;;;;;23.20;5.90;;;7.30;99.90;;;;;;5227505;28;20334;-50
2022/05/09 03:09:01;;;;;;;17.23;5.83;;;7.30;99.90;;;;;;5218469;28;20511;-49
2022/05/09 03:11:31;;;;;;;9.20;5.30;;;7.20;99.90;;;;;;5227716;28;20696;-49
2022/05/09 03:14:02;;;;;;;23.17;6.43;;;7.30;99.90;;;;;;5229345;28;20662;-49
2022/05/09 03:16:32;;;;;;;17.73;6.10;;;7.20;99.90;;;;;;5227307;28;20225;-50
2022/05/09 03:19:03;;;;;;;20.60;6.70;;;7.10;99.90;;;;;;5227686;28;20185;-50
2022/05/09 03:21:33;;;;;;;18.27;6.07;;;7.10;99.90;;;;;;5228248;28;20178;-49
2022/05/09 03:24:04;;;;;;;16.40;5.77;;;7.10;99.90;;;;;;5256672;22;20296;-54
2022/05/09 03:26:35;;;;;;;13.93;6.17;;;7.10;99.90;;;;;;5223108;28;20297;-52
2022/05/09 03:29:05;;;;;;;31.00;6.70;;;7.10;99.90;;;;;;5224869;28;20185;-53
2022/05/09 03:31:36;;;;;;;17.47;5.50;;;7.10;99.90;;;;;;5227158;28;20240;-54
2022/05/09 03:34:07;;;;;;;19.63;6.60;;;7.10;99.90;;;;;;5210756;28;20206;-54
2022/05/09 03:36:38;;;;;;;14.90;6.40;;;7.00;99.90;;;;;;5206838;28;20233;-53
2022/05/09 03:39:09;;;;;;;16.73;6.13;;;7.00;99.90;;;;;;5207976;28;20468;-53
2022/05/09 03:41:39;;;;;;;23.60;7.50;;;7.00;99.90;;;;;;5207737;28;20441;-53
2022/05/09 03:44:10;;;;;;;21.63;6.03;;;7.00;99.90;;;;;;5217900;28;20301;-52
2022/05/09 03:46:41;;;;;;;13.27;5.30;;;7.00;99.90;;;;;;5210345;28;20197;-52
2022/05/09 03:49:12;;;;;;;9.80;5.70;;;7.00;99.90;;;;;;5205785;28;20660;-53
2022/05/09 03:51:42;;;;;;;15.50;4.63;;;7.00;99.90;;;;;;5195829;28;20464;-53
2022/05/09 03:54:13;;;;;;;14.10;6.00;;;7.00;99.90;;;;;;5207882;28;20551;-54
2022/05/09 03:56:44;;;;;;;10.67;6.00;;;7.00;99.90;;;;;;5204417;28;20674;-54
2022/05/09 03:59:15;;;;;;;14.20;5.47;;;7.00;99.90;;;;;;5196409;28;20176;-56
2022/05/09 04:01:46;;;;;;;13.37;6.00;;;7.00;99.90;;;;;;5219185;28;20556;-55
2022/05/09 04:04:16;;;;;;;14.87;5.60;;;7.10;99.90;;;;;;5204588;28;20205;-54
2022/05/09 04:06:49;;;;;;;15.67;5.37;;;7.10;99.90;;;;;;5194835;28;20416;-55
2022/05/09 04:09:20;;;;;;;17.73;6.77;;;7.10;99.90;;;;;;5206049;28;20302;-55
2022/05/09 04:11:51;;;;;;;15.90;5.90;;;7.10;99.90;;;;;;5204167;28;20952;-55
2022/05/09 04:16:49;;;;;;;18.70;6.73;;;7.10;99.90;;;;;;5206843;28;20216;-55
2022/05/09 04:17:14;;;;;;;34.10;7.80;;;7.20;99.90;;;;;;5191665;28;20182;-54
2022/05/09 04:19:44;;;;;;;14.03;5.47;;;7.30;99.90;;;;;;5197087;28;20917;-53
2022/05/09 04:22:15;;;;;;;20.83;6.67;;;7.30;99.90;;;;;;5205492;28;20422;-55
2022/05/09 04:24:45;;;;;;;17.30;6.37;;;7.30;99.90;;;;;;5200463;28;20665;-54
2022/05/09 04:27:16;;;;;;;17.10;6.43;;;7.40;99.90;;;;;;5196219;28;20659;-53
2022/05/09 04:29:47;;;;;;;14.20;6.30;;;7.40;99.90;;;;;;5200281;28;20222;-54
2022/05/09 04:32:18;;;;;;;16.60;5.93;;;7.50;99.90;;;;;;5215650;28;20546;-53
2022/05/09 04:34:49;;;;;;;11.37;6.03;;;7.60;99.90;;;;;;5211677;28;20438;-53
2022/05/09 04:37:19;;;;;;;24.37;6.80;;;7.60;99.90;;;;;;5206153;28;20414;-54
2022/05/09 04:39:50;;;;;;;18.07;6.63;;;7.80;99.90;;;;;;5198876;28;20619;-52
2022/05/09 04:42:21;;;;;;;15.57;5.70;;;7.70;99.90;;;;;;5193261;28;20187;-53
2022/05/09 04:44:51;;;;;;;22.27;6.97;;;7.90;99.90;;;;;;5213566;28;20555;-54
2022/05/09 04:47:21;;;;;;;14.60;6.60;;;8.00;99.90;;;;;;5204290;28;20179;-54
2022/05/09 04:49:52;;;;;;;13.53;5.53;;;8.20;99.90;;;;;;5201215;28;20568;-53
2022/05/09 04:52:22;;;;;;;16.83;6.00;;;8.60;99.90;;;;;;5201898;28;20183;-54
2022/05/09 04:54:53;;;;;;;17.83;6.63;;;9.00;99.90;;;;;;5194024;28;20189;-55
2022/05/09 04:57:24;;;;;;;19.73;6.07;;;9.40;99.90;;;;;;5196905;28;20269;-54
2022/05/09 04:59:54;;;;;;;13.57;5.37;;;10.10;99.90;;;;;;5200372;28;20438;-55
2022/05/09 05:02:25;;;;;;;16.70;5.63;;;10.90;99.90;;;;;;5199196;28;20533;-54
2022/05/09 05:04:56;;;;;;;14.00;6.00;;;11.30;99.90;;;;;;5200849;28;20263;-55
2022/05/09 05:07:26;;;;;;;15.33;5.03;;;11.70;99.90;;;;;;5190423;28;20196;-56
2022/05/09 05:09:57;;;;;;;10.20;5.10;;;12.50;99.90;;;;;;5204319;28;20683;-55
2022/05/09 05:12:27;;;;;;;13.13;5.00;;;12.90;99.90;;;;;;5199907;28;20294;-54
2022/05/09 05:14:58;;;;;;;10.37;5.50;;;14.10;99.90;;;;;;5204459;28;20491;-55
2022/05/09 05:17:29;;;;;;;13.43;4.33;;;15.30;96.20;;;;;;5198657;28;20183;-55
2022/05/09 05:20:00;;;;;;;10.50;4.53;;;16.60;87.10;;;;;;5200717;28;20436;-54
2022/05/09 05:22:39;;;;;;;9.27;4.43;;;17.50;72.20;;;;;;5203314;28;20215;-56
2022/05/09 05:25:11;;;;;;;11.00;4.93;;;17.80;63.90;;;;;;5203194;28;20426;-54
2022/05/09 05:27:42;;;;;;;6.60;4.50;;;17.70;62.10;;;;;;5197897;28;20441;-53
2022/05/09 05:30:12;;;;;;;4.97;4.30;;;18.10;60.10;;;;;;5204030;28;20458;-54
2022/05/09 05:32:44;;;;;;;9.60;4.97;;;18.70;57.40;;;;;;5206815;28;20335;-55
2022/05/09 05:35:20;;;;;;;23.73;5.20;;;19.20;55.40;;;;;;5201820;28;20269;-55
2022/05/09 05:37:51;;;;;;;6.73;4.67;;;19.30;53.60;;;;;;5193065;28;21295;-55
2022/05/09 05:40:22;;;;;;;9.23;4.17;;;19.90;52.40;;;;;;5196253;28;20444;-55
2022/05/09 05:42:53;;;;;;;10.50;4.90;;;20.20;50.40;;;;;;5197312;28;20241;-55
2022/05/09 05:45:24;;;;;;;8.43;4.87;;;20.30;49.90;;;;;;5202437;28;20438;-55
2022/05/09 05:47:54;;;;;;;12.50;4.60;;;20.40;49.60;;;;;;5201909;28;20504;-56
2022/05/09 05:50:25;;;;;;;10.43;4.70;;;20.50;49.70;;;;;;5195357;28;20212;-55
2022/05/09 05:52:55;;;;;;;11.23;4.87;;;21.40;47.00;;;;;;5197289;28;20208;-57
2022/05/09 05:55:26;;;;;;;6.93;4.83;;;21.90;45.10;;;;;;5195538;28;20183;-55
2022/05/09 05:57:57;;;;;;;9.23;4.60;;;22.30;44.70;;;;;;5204672;28;20707;-56
2022/05/09 06:00:27;;;;;;;8.13;4.80;;;22.50;42.80;;;;;;5193359;28;20180;-55
2022/05/09 06:02:58;;;;;;;6.67;4.00;;;22.30;42.40;;;;;;5197352;28;20311;-54
2022/05/09 06:05:29;;;;;;;10.87;5.83;;;21.90;43.20;;;;;;5198754;28;20187;-55
2022/05/09 06:07:59;;;;;;;8.50;4.43;;;22.60;42.90;;;;;;5203328;28;20206;-53
2022/05/09 06:10:33;;;;;;;10.13;5.60;;;22.70;41.10;;;;;;5200291;28;20460;-54
2022/05/09 06:13:05;;;;;;;9.30;4.50;;;22.60;42.10;;;;;;5194869;28;20275;-55
2022/05/09 06:19:53;;;;;;;7.63;4.73;;;23.20;40.40;;;;;;5194676;28;20494;-55
2022/05/09 06:22:23;;;;;;;6.00;4.60;;;23.50;40.00;;;;;;5193539;28;20446;-54
2022/05/09 06:24:58;;;;;;;4.20;3.80;;;24.30;39.10;;;;;;5192367;28;20442;-55
2022/05/09 06:27:29;;;;;;;7.03;4.60;;;24.40;38.80;;;;;;5203371;28;20186;-55
2022/05/09 06:30:00;;;;;;;4.93;4.43;;;25.50;37.30;;;;;;5207980;28;20462;-54
2022/05/09 06:32:31;;;;;;;5.23;4.57;;;25.70;36.00;;;;;;5207010;28;20578;-56
2022/05/09 06:35:06;;;;;;;9.13;4.37;;;26.50;35.40;;;;;;5206183;28;20422;-56
2022/05/09 06:37:38;;;;;;;6.70;4.60;;;27.20;33.30;;;;;;5213003;28;20206;-56
2022/05/09 06:40:11;;;;;;;9.57;5.23;;;26.20;34.60;;;;;;5203639;28;20473;-57
2022/05/09 06:42:41;;;;;;;7.80;4.00;;;26.20;34.60;;;;;;5195880;28;20617;-57
2022/05/09 06:45:12;;;;;;;11.17;4.30;;;25.90;34.30;;;;;;5201779;28;20526;-56
2022/05/09 06:47:51;;;;;;;7.33;4.57;;;25.70;34.80;;;;;;5203150;28;20187;-56
2022/05/09 06:50:25;;;;;;;7.80;5.03;;;25.40;35.10;;;;;;5205519;28;20231;-56
2022/05/09 06:52:57;;;;;;;7.40;4.50;;;25.90;34.90;;;;;;5202200;28;20446;-55
2022/05/09 06:55:27;;;;;;;7.83;5.10;;;25.90;34.20;;;;;;5198672;28;20484;-58
2022/05/09 06:57:58;;;;;;;5.20;4.00;;;25.90;35.10;;;;;;5201769;28;20439;-56
2022/05/09 07:00:28;;;;;;;6.90;4.83;;;27.00;34.00;;;;;;5199051;28;20215;-55
2022/05/09 07:03:01;;;;;;;8.30;4.80;;;27.20;32.40;;;;;;5200032;28;20585;-56
2022/05/09 07:05:32;;;;;;;12.73;5.40;;;27.30;33.10;;;;;;5200399;28;20219;-56
2022/05/09 07:08:03;;;;;;;5.33;4.63;;;28.40;31.10;;;;;;5203779;28;20466;-58
2022/05/09 07:10:34;;;;;;;11.00;4.60;;;28.10;30.50;;;;;;5203934;28;20202;-56
2022/05/09 07:13:05;;;;;;;6.10;5.40;;;28.80;30.00;;;;;;5195030;28;20454;-55
2022/05/09 07:15:36;;;;;;;7.93;4.90;;;29.40;30.00;;;;;;5194427;28;20187;-56
2022/05/09 07:18:08;;;;;;;10.50;6.00;;;28.90;30.00;;;;;;5203249;28;20439;-55
2022/05/09 07:20:38;;;;;;;10.80;4.80;;;28.50;30.40;;;;;;5197990;28;20211;-56
2022/05/09 07:23:11;;;;;;;4.77;4.30;;;29.30;29.00;;;;;;5194463;28;20557;-57
2022/05/09 07:25:41;;;;;;;8.60;4.87;;;30.20;29.20;;;;;;5205610;28;20202;-57
2022/05/09 07:28:16;;;;;;;11.20;4.93;;;30.70;28.00;;;;;;5202992;28;20430;-55
2022/05/09 07:30:47;;;;;;;8.83;5.37;;;30.30;28.00;;;;;;5196373;28;20219;-57
2022/05/09 07:33:19;;;;;;;6.03;4.87;;;29.30;28.70;;;;;;5196517;28;21033;-57
2022/05/09 07:35:50;;;;;;;7.37;4.60;;;28.10;30.50;;;;;;5200342;28;20997;-55
2022/05/09 07:38:21;;;;;;;7.40;4.60;;;27.60;31.00;;;;;;5196408;28;20439;-55
2022/05/09 07:40:51;;;;;;;12.40;4.43;;;27.70;30.70;;;;;;5193621;28;21957;-54
2022/05/09 07:43:25;;;;;;;12.03;5.67;;;28.30;30.00;;;;;;5195888;28;20244;-55
2022/05/09 07:45:56;;;;;;;4.00;3.70;;;28.30;30.30;;;;;;5192045;28;20664;-55
2022/05/09 07:48:29;;;;;;;8.63;5.03;;;28.10;29.90;;;;;;5199107;28;20890;-54
2022/05/09 07:51:00;;;;;;;6.60;5.00;;;28.00;30.10;;;;;;5202389;28;20458;-56
2022/05/09 07:53:33;;;;;;;12.90;5.47;;;28.10;30.50;;;;;;5204339;28;20515;-56
2022/05/09 07:56:05;;;;;;;7.23;4.53;;;27.70;30.30;;;;;;5198770;28;20437;-54
2022/05/09 07:58:36;;;;;;;6.63;4.20;;;27.50;30.80;;;;;;5189008;28;20463;-56
2022/05/09 08:01:06;;;;;;;6.30;4.87;;;27.50;30.80;;;;;;5193026;28;20438;-54
2022/05/09 08:03:38;;;;;;;11.80;4.77;;;28.00;30.30;;;;;;5195252;28;20588;-56
2022/05/09 08:06:09;;;;;;;4.67;3.60;;;27.70;30.80;;;;;;5203676;28;20180;-54
2022/05/09 08:08:40;;;;;;;6.60;4.50;;;27.90;30.90;;;;;;5197153;28;20787;-55
2022/05/09 08:11:12;;;;;;;7.70;4.57;;;28.10;30.00;;;;;;5201214;28;20229;-55
2022/05/09 08:13:43;;;;;;;6.47;4.30;;;27.90;30.60;;;;;;5199824;28;20485;-54
2022/05/09 08:16:18;;;;;;;14.50;5.20;;;28.20;30.40;;;;;;5189849;28;20874;-55
2022/05/09 08:18:49;;;;;;;9.90;4.13;;;28.60;29.60;;;;;;5192997;28;20532;-55
2022/05/09 08:21:21;;;;;;;8.60;3.80;;;28.60;30.00;;;;;;5191676;28;20442;-56
2022/05/09 08:23:51;;;;;;;9.33;4.23;;;28.20;29.70;;;;;;5191081;28;20252;-54
2022/05/09 08:26:22;;;;;;;8.13;4.20;;;28.50;29.40;;;;;;5205574;28;20474;-56
2022/05/09 08:28:53;;;;;;;6.83;4.87;;;28.00;29.80;;;;;;5193088;28;20188;-55
2022/05/09 08:31:24;;;;;;;8.03;4.27;;;28.50;30.00;;;;;;5195749;28;20257;-57
2022/05/09 08:33:57;;;;;;;8.80;4.20;;;28.30;29.10;;;;;;5199053;28;20245;-55
2022/05/09 08:36:46;;;;;;;14.67;5.00;;;26.70;30.80;;;;;;5201123;28;20446;-54
2022/05/09 08:39:17;;;;;;;12.70;4.73;;;25.90;32.40;;;;;;5195291;28;20942;-56
2022/05/09 08:41:55;;;;;;;10.50;4.57;;;25.10;34.30;;;;;;5192026;28;20473;-55
2022/05/09 08:44:57;;;;;;;7.87;4.30;;;25.30;34.50;;;;;;5200913;28;20517;-55
2022/05/09 08:47:41;;;;;;;7.10;5.00;;;25.40;34.90;;;;;;5200191;28;20450;-57
2022/05/09 08:50:37;;;;;;;10.60;3.77;;;25.00;35.40;;;;;;5200058;28;20476;-54
2022/05/09 08:53:27;;;;;;;15.63;4.10;;;24.60;35.30;;;;;;5194587;28;20484;-57
2022/05/09 08:55:59;;;;;;;9.93;4.53;;;23.90;36.50;;;;;;5190849;28;20450;-53
2022/05/09 08:58:40;;;;;;;6.50;3.43;;;23.40;36.80;;;;;;5205269;28;20429;-55
2022/05/09 09:01:20;;;;;;;6.37;3.43;;;22.60;37.00;;;;;;5206345;28;20434;-56
2022/05/09 09:04:04;;;;;;;9.83;4.33;;;21.70;38.30;;;;;;5205014;28;20593;-54
2022/05/09 09:06:51;;;;;;;4.07;3.67;;;20.50;39.80;;;;;;5197352;28;20531;-55
2022/05/09 09:09:54;;;;;;;8.17;4.93;;;19.90;41.40;;;;;;5191693;28;20493;-54
2022/05/09 09:12:59;;;;;;;5.97;2.90;;;19.20;42.10;;;;;;5189051;28;20962;-54
2022/05/09 09:16:04;;;;;;;5.40;3.13;;;18.80;42.20;;;;;;5189493;28;20434;-54
2022/05/09 09:18:54;;;;;;;7.63;4.03;;;18.60;43.60;;;;;;5190844;28;20517;-54
2022/05/09 09:21:49;;;;;;;10.73;3.67;;;18.60;44.50;;;;;;5203902;28;20799;-55
2022/05/09 09:24:49;;;;;;;11.33;3.53;;;18.30;44.80;;;;;;5196507;28;20474;-55
2022/05/09 09:27:44;;;;;;;6.77;3.10;;;18.20;43.20;;;;;;5192843;28;20441;-56
2022/05/09 09:30:19;;;;;;;14.90;3.40;;;18.20;43.00;;;;;;5197583;28;20520;-57
2022/05/09 09:33:01;;;;;;;8.90;3.50;;;18.30;42.90;;;;;;5201132;28;20805;-56
2022/05/09 09:36:00;;;;;;;5.87;3.10;;;18.60;43.00;;;;;;5202767;28;20471;-57
2022/05/09 09:38:45;;;;;;;7.90;3.90;;;18.50;42.70;;;;;;5191992;28;20497;-55
2022/05/09 09:41:30;;;;;;;5.93;4.20;;;18.40;42.10;;;;;;5196228;28;20794;-56
2022/05/09 09:44:14;;;;;;;7.90;3.43;;;18.40;42.90;;;;;;5196425;28;20474;-54
2022/05/09 09:47:30;;;;;;;8.57;2.87;;;18.40;42.10;;;;;;5195614;28;20442;-56
2022/05/09 09:50:20;;;;;;;5.83;3.43;;;18.40;42.40;;;;;;5200095;28;20461;-55
2022/05/09 09:52:54;;;;;;;5.07;3.77;;;18.50;42.30;;;;;;5201535;28;20481;-58
2022/05/09 09:56:03;;;;;;;8.17;3.70;;;18.50;42.40;;;;;;5206245;28;20449;-56
2022/05/09 09:58:38;;;;;;;7.23;3.70;;;18.40;42.20;;;;;;5205898;28;20465;-54
2022/05/09 10:01:22;;;;;;;15.63;3.57;;;18.50;42.30;;;;;;5194202;28;20442;-57
2022/05/09 10:04:10;;;;;;;6.53;2.93;;;18.50;42.10;;;;;;5193599;28;20454;-58
2022/05/09 10:07:02;;;;;;;5.33;3.60;;;18.50;42.10;;;;;;5193662;28;20452;-58
2022/05/09 10:09:38;;;;;;;12.30;3.83;;;18.70;41.80;;;;;;5188780;28;20438;-57
2022/05/09 10:12:21;;;;;;;13.07;3.03;;;18.80;42.00;;;;;;5189598;28;20462;-56
2022/05/09 10:14:53;;;;;;;6.47;3.07;;;18.80;42.40;;;;;;5185918;28;20427;-57
2022/05/09 10:17:28;;;;;;;4.83;3.20;;;18.70;42.60;;;;;;5187654;28;20462;-57
2022/05/09 10:20:20;;;;;;;3.87;2.50;;;18.70;42.20;;;;;;5190135;28;20442;-54
2022/05/09 10:25:59;;;;;;;7.07;3.60;;;18.70;41.80;;;;;;5207601;28;20461;-58
2022/05/09 10:28:34;;;;;;;6.50;3.03;;;18.60;42.10;;;;;;5196164;28;20434;-55
2022/05/09 10:31:33;;;;;;;7.50;3.03;;;18.50;41.60;;;;;;5199288;28;20824;-56
2022/05/09 10:34:08;;;;;;;6.57;2.80;;;18.50;41.90;;;;;;5198423;28;20454;-56
2022/05/09 10:36:50;;;;;;;6.07;2.53;;;18.80;40.90;;;;;;5199773;28;20433;-58
2022/05/09 10:39:31;;;;;;;6.70;2.27;;;19.00;39.50;;;;;;5198780;28;20426;-57
2022/05/09 10:42:07;;;;;;;9.73;3.23;;;19.20;38.10;;;;;;5194998;28;20553;-56
2022/05/09 10:44:50;;;;;;;5.80;2.33;;;19.20;37.60;;;;;;5196826;28;20434;-55
2022/05/09 10:47:33;;;;;;;11.73;2.90;;;19.10;36.10;;;;;;5190637;28;20450;-55
2022/05/09 10:50:12;;;;;;;3.23;2.93;;;19.10;37.50;;;;;;5193180;28;20556;-57
2022/05/09 10:53:20;;;;;;;7.30;2.50;;;19.10;37.10;;;;;;5187264;28;20479;-58
2022/05/09 10:56:06;;;;;;;4.57;2.33;;;19.00;36.30;;;;;;5174629;28;20431;-58
2022/05/09 10:58:46;;;;;;;6.73;2.17;;;18.80;36.00;;;;;;5193373;28;20461;-57
2022/05/09 11:01:25;;;;;;;4.40;2.53;;;18.70;36.00;;;;;;5199481;28;20547;-57
2022/05/09 11:03:56;;;;;;;8.47;2.93;;;18.70;37.20;;;;;;5205577;28;20454;-58
2022/05/09 11:06:41;;;;;;;6.50;3.13;;;18.70;37.30;;;;;;5201131;28;20434;-58
2022/05/09 11:09:23;;;;;;;5.03;2.30;;;18.80;38.30;;;;;;5192143;28;20959;-57
2022/05/09 11:11:57;;;;;;;7.63;2.50;;;19.10;38.90;;;;;;5188647;28;20466;-57
2022/05/09 11:14:53;;;;;;;4.60;3.27;;;19.20;38.00;;;;;;5201348;28;20445;-58
2022/05/09 11:17:32;;;;;;;9.80;3.43;;;19.30;39.00;;;;;;5189861;28;20533;-57
2022/05/09 11:20:21;;;;;;;4.93;2.83;;;19.20;39.70;;;;;;5191179;28;20430;-58
2022/05/09 11:23:13;;;;;;;3.53;2.70;;;19.30;39.50;;;;;;5193498;28;20465;-58
2022/05/09 11:25:55;;;;;;;4.50;2.97;;;19.30;39.70;;;;;;5198919;28;20442;-58
2022/05/09 11:28:47;;;;;;;10.87;3.93;;;19.20;39.10;;;;;;5191932;28;20446;-58
2022/05/09 11:31:21;;;;;;;3.90;3.30;;;19.10;39.90;;;;;;5202915;28;20523;-58
2022/05/09 11:34:09;;;;;;;8.60;3.33;;;19.00;40.10;;;;;;5197168;28;20969;-57
2022/05/09 11:36:59;;;;;;;23.00;4.60;;;19.00;40.00;;;;;;5202599;28;20426;-58
2022/05/09 11:39:44;;;;;;;11.07;3.00;;;19.40;40.80;;;;;;5196565;28;20471;-57
2022/05/09 11:45:49;;;;;;;10.43;2.80;;;19.10;39.30;;;;;;5192141;28;20556;-57
2022/05/09 11:48:38;;;;;;;7.63;2.43;;;19.10;39.30;;;;;;5199568;28;20435;-58
2022/05/09 11:51:30;;;;;;;2.73;2.53;;;19.00;38.80;;;;;;5196720;28;20987;-57
2022/05/09 11:54:06;;;;;;;5.93;2.67;;;19.20;38.90;;;;;;5198130;28;20485;-58
2022/05/09 11:56:40;;;;;;;4.00;3.00;;;19.10;39.00;;;;;;5202080;28;20434;-55
2022/05/09 11:59:20;;;;;;;8.87;2.43;;;19.20;39.00;;;;;;5198759;28;20510;-58
2022/05/09 12:02:03;;;;;;;5.83;2.83;;;19.40;39.10;;;;;;5216600;28;20442;-57
2022/05/09 12:04:48;;;;;;;4.07;2.90;;;19.50;38.00;;;;;;5199847;28;20465;-58
2022/05/09 12:07:22;;;;;;;2.33;2.10;;;19.60;37.70;;;;;;5200360;28;20511;-55
2022/05/09 12:10:02;;;;;;;4.43;2.30;;;19.70;37.80;;;;;;5219710;28;20442;-59
2022/05/09 12:12:41;;;;;;;3.43;2.47;;;19.80;37.50;;;;;;5196725;28;20583;-58
2022/05/09 12:15:14;;;;;;;2.83;2.47;;;19.80;37.00;;;;;;5198270;28;20431;-59
2022/05/09 12:17:53;;;;;;;8.90;2.70;;;19.80;37.00;;;;;;5196337;28;20532;-55
2022/05/09 12:20:27;;;;;;;6.53;2.60;;;19.90;37.20;;;;;;5197883;28;20447;-58
2022/05/09 12:23:03;;;;;;;3.50;2.60;;;19.70;37.40;;;;;;5200915;28;20474;-58
2022/05/09 12:25:34;;;;;;;4.10;3.23;;;19.70;36.90;;;;;;5197221;28;20820;-56
2022/05/09 12:28:22;;;;;;;6.47;2.60;;;19.60;37.40;;;;;;5194781;28;20537;-58
2022/05/09 12:30:58;;;;;;;3.70;2.03;;;19.70;37.80;;;;;;5191695;28;20350;-58
2022/05/09 12:33:31;;;;;;;6.20;2.80;;;19.80;36.60;;;;;;5202165;28;20454;-58
2022/05/09 12:36:07;;;;;;;7.47;3.07;;;19.80;36.40;;;;;;5201834;28;20442;-60
2022/05/09 12:38:44;;;;;;;2.93;2.63;;;19.90;37.00;;;;;;5197348;28;20437;-57
2022/05/09 12:41:22;;;;;;;11.27;2.70;;;20.00;37.00;;;;;;5195449;28;20512;-57
2022/05/09 12:44:16;;;;;;;10.33;3.63;;;19.90;36.60;;;;;;5191529;28;20466;-59
2022/05/09 12:46:51;;;;;;;3.80;2.00;;;19.90;36.60;;;;;;5209350;28;20785;-56
2022/05/09 12:49:56;;;;;;;3.23;2.60;;;19.90;36.60;;;;;;5196304;28;20435;-57
2022/05/09 12:52:31;;;;;;;2.63;2.20;;;19.90;36.30;;;;;;5154867;28;20473;-60
2022/05/09 12:57:51;;;;;;;4.57;1.80;;;20.00;36.70;;;;;;5192849;28;20960;-59
2022/05/09 13:00:30;;;;;;;6.40;2.47;;;19.90;36.00;;;;;;5194665;28;20429;-58
2022/05/09 13:03:07;;;;;;;3.43;2.50;;;19.70;36.60;;;;;;5199771;28;20199;-58
2022/05/09 13:05:41;;;;;;;9.50;2.80;;;19.70;36.50;;;;;;5205003;28;20410;-58
2022/05/09 13:08:16;;;;;;;2.50;2.37;;;19.90;36.30;;;;;;5199945;28;20438;-58
2022/05/09 13:10:53;;;;;;;4.67;2.83;;;20.00;36.30;;;;;;5191973;28;20477;-58
2022/05/09 13:13:30;;;;;;;5.60;2.30;;;20.10;36.60;;;;;;5194213;28;20868;-58
2022/05/09 13:16:01;;;;;;;7.60;3.33;;;20.00;35.60;;;;;;5196022;28;20445;-59
2022/05/09 13:18:32;;;;;;;6.20;2.63;;;20.00;36.00;;;;;;5202822;28;20837;-60
2022/05/09 13:21:08;;;;;;;17.70;2.60;;;20.00;36.40;;;;;;5202211;28;20263;-56
2022/05/09 13:23:45;;;;;;;5.20;2.37;;;20.00;36.00;;;;;;5185954;28;20465;-59
2022/05/09 13:26:19;;;;;;;6.40;2.70;;;19.90;35.60;;;;;;5202840;28;20463;-56
2022/05/09 13:29:08;;;;;;;4.60;2.20;;;19.90;35.70;;;;;;5196371;28;20973;-58
2022/05/09 13:31:44;;;;;;;2.43;2.23;;;20.00;35.70;;;;;;5199039;28;20549;-58
2022/05/09 13:34:30;;;;;;;4.00;2.40;;;20.00;35.40;;;;;;5202875;28;20461;-59
2022/05/09 13:37:03;;;;;;;4.63;2.53;;;20.10;35.40;;;;;;5213852;28;20477;-57
2022/05/09 13:39:51;;;;;;;5.57;2.80;;;20.20;35.40;;;;;;5204504;28;20449;-57
2022/05/09 13:42:33;;;;;;;3.77;2.30;;;20.30;34.80;;;;;;5186255;28;20541;-59
2022/05/09 13:45:12;;;;;;;7.73;2.70;;;20.30;35.30;;;;;;5188968;28;20431;-60
2022/05/09 13:47:47;;;;;;;8.80;2.70;;;20.30;35.10;;;;;;5215279;28;20440;-57
2022/05/09 13:50:18;;;;;;;3.30;1.90;;;20.30;35.80;;;;;;5206660;28;21203;-59